Time;durP1;ratioP1;P1;durP2;ratioP2;P2;SDS_P1;SDS_P2;PMS_P1;PMS_P2;Temp;Humidity;BMP_temperature;BMP_pressure;BME280_temperature;BME280_humidity;BME280_pressure;Samples;Min_cycle;Max_cycle;Signal;HPM_P1;HPM_P2
2022/02/03 00:07:02;;;;;;;;;;;;;;;21.68;29.17;96237.13;10429347;28;1816;-72
2022/02/03 00:33:14;;;;;;;;;;;;;;;21.67;28.90;96248.75;10420140;28;1913;-72
2022/02/03 00:38:23;;;;;;;;;;;;;;;21.66;28.71;96241.88;10429972;28;1848;-72
2022/02/03 00:48:46;;;;;;;;;;;;;;;21.64;28.82;96249.28;10428247;28;1806;-72
2022/02/03 00:53:46;;;;;;;;;;;;;;;21.65;28.81;96253.50;10458969;28;2012;-72
2022/02/03 00:58:59;;;;;;;;;;;;;;;21.64;28.71;96249.28;10391049;28;1860;-72
2022/02/03 01:04:01;;;;;;;;;;;;;;;21.61;28.64;96250.63;10426570;28;1790;-71
2022/02/03 01:09:03;;;;;;;;;;;;;;;21.64;28.67;96255.34;10429001;28;1824;-72
2022/02/03 01:14:18;;;;;;;;;;;;;;;21.62;28.83;96251.41;10411519;28;1909;-72
2022/02/03 01:56:12;;;;;;;;;;;;;;;21.63;28.65;96227.41;10425949;28;1959;-71
2022/02/03 02:01:33;;;;;;;;;;;;;;;21.65;28.53;96219.22;10430785;28;1943;-70
2022/02/03 02:06:52;;;;;;;;;;;;;;;21.60;28.36;96214.75;10423966;28;1996;-72
2022/02/03 02:12:18;;;;;;;;;;;;;;;21.62;28.49;96201.28;10393239;23;1240947;-57
2022/02/03 02:17:57;;;;;;;;;;;;;;;21.63;28.15;96194.94;10429774;28;1973;-59
2022/02/03 02:39:08;;;;;;;;;;;;;;;21.63;28.19;96185.19;10429389;28;1882;-57
2022/02/03 02:44:15;;;;;;;;;;;;;;;21.64;28.01;96192.03;10415816;28;1915;-58
2022/02/03 02:49:25;;;;;;;;;;;;;;;21.61;28.08;96184.66;10431760;28;1868;-56
2022/02/03 02:55:44;;;;;;;;;;;;;;;21.61;28.13;96186.50;10430061;28;2344;-59
2022/02/03 03:38:04;;;;;;;;;;;;;;;21.60;28.10;96175.16;10478817;28;1906;-43
2022/02/03 03:42:50;;;;;;;;;;;;;;;21.61;28.15;96176.75;10468363;28;1958;-44
2022/02/03 03:47:51;;;;;;;;;;;;;;;21.62;28.36;96174.88;10474020;28;2009;-44
2022/02/03 03:52:59;;;;;;;;;;;;;;;21.62;28.31;96178.31;10468999;28;2021;-43
2022/02/03 03:58:21;;;;;;;;;;;;;;;21.62;28.19;96177.53;10472395;28;1966;-43
2022/02/03 04:31:11;;;;;;;;;;;;;;;21.62;28.04;96166.97;10467211;28;1994;-46
2022/02/03 05:35:05;;;;;;;;;;;;;;;21.61;27.88;96131.91;10479499;28;2017;-44
2022/02/03 05:45:57;;;;;;;;;;;;;;;21.63;27.93;96110.53;10459281;28;2087;-49
2022/02/03 05:51:16;;;;;;;;;;;;;;;21.61;28.15;96113.44;10480731;28;2000;-43
2022/02/03 06:02:28;;;;;;;;;;;;;;;21.62;28.17;96107.09;10464519;28;1967;-46
2022/02/03 06:20:41;;;;;;;;;;;;;;;21.61;28.16;96110.00;10474249;28;2061;-44
2022/02/03 06:23:25;;;;;;;;;;;;;;;21.60;27.99;96105.78;10472387;28;2014;-47
2022/02/03 06:28:25;;;;;;;;;;;;;;;21.63;28.08;96103.41;10464152;28;1898;-44
2022/02/03 06:33:25;;;;;;;;;;;;;;;21.59;27.99;96099.75;10468022;28;2086;-44
2022/02/03 06:38:26;;;;;;;;;;;;;;;21.60;27.88;96105.78;10469864;28;1954;-47
2022/02/03 06:43:26;;;;;;;;;;;;;;;21.61;27.83;96102.88;10470115;28;1977;-48
2022/02/03 06:48:28;;;;;;;;;;;;;;;21.63;28.02;96099.97;10473625;28;1988;-44
2022/02/03 06:53:34;;;;;;;;;;;;;;;21.63;28.00;96094.69;10457489;28;1973;-46
2022/02/03 06:58:48;;;;;;;;;;;;;;;21.64;27.85;96093.63;10463449;28;1892;-47
2022/02/03 07:03:58;;;;;;;;;;;;;;;21.61;28.34;96100.25;10465904;28;1828;-44
2022/02/03 07:09:06;;;;;;;;;;;;;;;21.61;28.38;96084.44;10463766;28;1816;-44
2022/02/03 07:14:07;;;;;;;;;;;;;;;21.67;28.04;96079.91;10468783;28;1906;-45
2022/02/03 07:19:07;;;;;;;;;;;;;;;21.68;27.97;96086.75;10469907;28;1898;-46
2022/02/03 07:24:08;;;;;;;;;;;;;;;21.68;28.11;96097.28;10467220;28;1777;-45
2022/02/03 07:29:13;;;;;;;;;;;;;;;21.70;28.06;96087.28;10470712;28;1887;-46
2022/02/03 07:34:15;;;;;;;;;;;;;;;21.71;27.78;96088.84;10469610;28;2031;-49
2022/02/03 07:39:16;;;;;;;;;;;;;;;21.65;27.35;96077.53;10467153;28;1787;-45
2022/02/03 07:44:16;;;;;;;;;;;;;;;21.71;28.33;96076.44;10469204;28;1845;-44
2022/02/03 07:49:17;;;;;;;;;;;;;;;21.86;28.43;96057.91;10472664;28;1851;-49
2022/02/03 07:54:18;;;;;;;;;;;;;;;21.97;28.08;96058.63;10467232;28;1918;-44
2022/02/03 07:59:19;;;;;;;;;;;;;;;22.06;27.42;96056.19;10469517;28;1826;-45
2022/02/03 08:04:23;;;;;;;;;;;;;;;22.12;27.25;96057.72;10468641;28;1851;-45
2022/02/03 08:09:42;;;;;;;;;;;;;;;22.16;26.86;96054.28;10470540;28;1924;-45
2022/02/03 08:14:47;;;;;;;;;;;;;;;22.22;26.71;96039.97;10465744;28;1906;-47
2022/02/03 08:25:06;;;;;;;;;;;;;;;22.31;26.67;96038.31;10468824;28;1884;-47
2022/02/03 08:35:22;;;;;;;;;;;;;;;22.39;26.37;96024.50;10465103;28;1906;-47
2022/02/03 08:40:32;;;;;;;;;;;;;;;22.46;26.30;96030.22;10468351;28;1833;-44
2022/02/03 08:45:33;;;;;;;;;;;;;;;22.53;26.29;96024.63;10471053;28;1821;-46
2022/02/03 08:50:34;;;;;;;;;;;;;;;22.52;26.10;96023.06;10469902;28;1852;-48
2022/02/03 09:34:35;;;;;;;;;;;;;;;22.95;26.78;95994.88;10450248;28;1811;-47
2022/02/03 10:04:52;;;;;;;;;;;;;;;23.03;26.54;95965.97;10472667;28;1738;-47
2022/02/03 10:09:54;;;;;;;;;;;;;;;23.03;26.38;95957.25;10474139;28;2026;-45
2022/02/03 10:14:55;;;;;;;;;;;;;;;23.00;26.52;95950.66;10472867;28;1914;-45
2022/02/03 10:19:59;;;;;;;;;;;;;;;22.82;27.67;95946.13;10469085;28;1808;-46
2022/02/03 10:25:00;;;;;;;;;;;;;;;22.77;27.32;95935.63;10471205;28;1844;-46
2022/02/03 10:30:13;;;;;;;;;;;;;;;22.70;27.46;95913.25;10467688;28;1805;-45
2022/02/03 10:35:15;;;;;;;;;;;;;;;22.59;27.45;95910.72;10467754;28;1975;-47
2022/02/03 11:01:22;;;;;;;;;;;;;;;22.24;28.46;95866.19;10475089;28;1810;-47
2022/02/03 11:06:31;;;;;;;;;;;;;;;22.18;28.46;95842.75;10473429;28;1846;-46
2022/02/03 11:11:35;;;;;;;;;;;;;;;22.13;28.72;95856.03;10479543;28;1850;-46
2022/02/03 11:16:39;;;;;;;;;;;;;;;22.08;28.79;95848.94;10473059;28;1906;-47
2022/02/03 11:21:44;;;;;;;;;;;;;;;22.06;28.75;95832.59;10476737;28;1880;-49
2022/02/03 11:32:47;;;;;;;;;;;;;;;21.99;29.05;95829.50;10456945;28;1820;-45
2022/02/03 11:43:04;;;;;;;;;;;;;;;21.97;29.26;95813.16;10468966;28;1928;-49
2022/02/03 12:24:46;;;;;;;;;;;;;;;21.90;30.13;95714.28;10467633;28;1881;-43
2022/02/03 12:29:51;;;;;;;;;;;;;;;21.91;30.25;95700.78;10468124;28;1817;-43
2022/02/03 12:45:26;;;;;;;;;;;;;;;21.87;30.09;95660.22;10465585;28;1870;-51
2022/02/03 12:50:31;;;;;;;;;;;;;;;21.89;30.18;95671.25;10465593;28;1949;-46
2022/02/03 12:55:35;;;;;;;;;;;;;;;21.90;29.90;95672.06;10470768;28;1934;-47
2022/02/03 13:00:49;;;;;;;;;;;;;;;21.85;30.08;95657.06;10469701;28;1875;-45
2022/02/03 13:05:53;;;;;;;;;;;;;;;21.86;29.99;95653.38;10466085;28;1849;-45
2022/02/03 13:11:01;;;;;;;;;;;;;;;21.84;30.08;95650.22;10466229;28;1835;-45
2022/02/03 13:16:08;;;;;;;;;;;;;;;21.85;30.06;95646.50;10465751;28;1918;-45
2022/02/03 13:21:27;;;;;;;;;;;;;;;21.82;30.57;95631.25;10467443;28;1884;-44
2022/02/03 13:26:33;;;;;;;;;;;;;;;21.86;30.43;95614.56;10467796;28;1855;-45
2022/02/03 13:31:43;;;;;;;;;;;;;;;21.88;30.28;95612.41;10473410;28;1873;-47
2022/02/03 13:36:49;;;;;;;;;;;;;;;21.92;30.56;95598.66;10471978;28;2070;-44
2022/02/03 13:41:59;;;;;;;;;;;;;;;21.92;30.20;95591.53;10471359;28;1997;-42
2022/02/03 13:47:00;;;;;;;;;;;;;;;21.88;30.35;95574.72;10477109;28;1804;-46
2022/02/03 13:52:03;;;;;;;;;;;;;;;21.88;30.61;95561.50;10476591;28;1810;-43
2022/02/03 14:26:50;;;;;;;;;;;;;;;21.90;30.62;95535.63;10473584;28;1805;-45
2022/02/03 14:28:42;;;;;;;;;;;;;;;21.89;30.63;95520.84;10468340;28;1932;-45
2022/02/03 14:33:42;;;;;;;;;;;;;;;21.88;30.74;95521.94;10469921;28;2007;-43
2022/02/03 14:38:50;;;;;;;;;;;;;;;21.92;30.62;95517.66;10472172;28;1826;-43
2022/02/03 14:43:51;;;;;;;;;;;;;;;21.94;30.46;95510.22;10468281;28;1768;-43
2022/02/03 14:48:51;;;;;;;;;;;;;;;21.91;30.68;95510.78;10466852;28;1753;-44
2022/02/03 14:53:56;;;;;;;;;;;;;;;21.90;30.47;95488.13;10468747;28;1984;-44
2022/02/03 14:58:57;;;;;;;;;;;;;;;21.92;30.62;95472.78;10451853;28;1822;-45
2022/02/03 15:03:58;;;;;;;;;;;;;;;21.92;30.62;95491.25;10457096;28;1955;-43
2022/02/03 15:14:11;;;;;;;;;;;;;;;22.17;30.08;95484.78;10465838;28;1983;-44
2022/02/03 15:19:11;;;;;;;;;;;;;;;22.25;30.06;95482.28;10464563;28;1821;-43
2022/02/03 15:24:12;;;;;;;;;;;;;;;22.35;30.02;95458.31;10464799;28;1835;-45
2022/02/03 15:29:13;;;;;;;;;;;;;;;22.44;29.68;95461.84;10462636;28;1903;-43
2022/02/03 15:34:19;;;;;;;;;;;;;;;22.57;29.28;95471.66;10471602;28;1971;-45
2022/02/03 15:39:24;;;;;;;;;;;;;;;22.69;28.83;95465.13;10469038;28;1826;-44
2022/02/03 15:44:25;;;;;;;;;;;;;;;22.76;29.11;95457.59;10467410;28;1599;-47
2022/02/03 16:20:43;;;;;;;;;;;;;;;22.98;28.48;95465.63;10467337;28;1871;-44
2022/02/03 16:52:40;;;;;;;;;;;;;;;23.08;27.96;95434.44;10467161;28;1863;-45
2022/02/03 16:57:41;;;;;;;;;;;;;;;23.10;27.75;95434.16;10468674;28;1973;-46
2022/02/03 17:02:41;;;;;;;;;;;;;;;23.09;27.84;95451.09;10465368;28;1810;-45
2022/02/03 17:07:42;;;;;;;;;;;;;;;23.07;28.04;95432.09;10465839;28;1855;-49
2022/02/03 17:12:42;;;;;;;;;;;;;;;23.08;27.81;95429.16;10466438;28;1836;-45
2022/02/03 17:17:43;;;;;;;;;;;;;;;23.09;28.03;95440.53;10467719;28;1914;-44
2022/02/03 17:22:45;;;;;;;;;;;;;;;23.10;27.90;95450.78;10448810;28;2041;-49
2022/02/03 17:27:54;;;;;;;;;;;;;;;23.09;28.18;95441.31;10461636;28;1864;-45
2022/02/03 18:31:26;;;;;;;;;;;;;;;22.66;27.53;95416.28;10475025;28;1754;-44
2022/02/03 18:37:11;;;;;;;;;;;;;;;22.65;27.79;95410.22;10467792;28;2076;-46
2022/02/03 18:53:04;;;;;;;;;;;;;;;22.51;28.16;95388.28;10476078;28;1845;-48
2022/02/03 18:57:51;;;;;;;;;;;;;;;22.45;28.02;95372.81;10466812;28;1886;-45
2022/02/03 19:24:38;;;;;;;;;;;;;;;22.32;28.14;95378.88;10473436;28;1861;-45
2022/02/03 20:06:56;;;;;;;;;;;;;;;22.33;29.97;95372.53;10473286;28;1925;-49
2022/02/03 20:11:56;;;;;;;;;;;;;;;22.32;29.84;95373.59;10467192;28;1517;-48
2022/02/03 20:16:57;;;;;;;;;;;;;;;22.33;30.30;95362.78;10472674;28;1973;-44
2022/02/03 20:21:57;;;;;;;;;;;;;;;22.30;30.55;95365.19;10467778;28;1522;-45
2022/02/03 20:26:58;;;;;;;;;;;;;;;22.33;30.30;95359.34;10471927;28;1527;-44
2022/02/03 20:31:58;;;;;;;;;;;;;;;22.35;30.22;95373.03;10479847;28;1570;-46
2022/02/03 20:36:58;;;;;;;;;;;;;;;22.35;30.72;95357.19;10466929;28;1981;-45
2022/02/03 20:41:59;;;;;;;;;;;;;;;22.34;30.74;95360.91;10466708;28;1492;-44
2022/02/03 20:46:59;;;;;;;;;;;;;;;22.31;30.56;95364.13;10463750;28;1616;-43
2022/02/03 20:52:00;;;;;;;;;;;;;;;22.30;30.61;95344.06;10462138;28;1516;-46
2022/02/03 20:57:00;;;;;;;;;;;;;;;22.28;30.68;95341.72;10464974;28;1977;-44
2022/02/03 21:02:07;;;;;;;;;;;;;;;22.27;31.27;95326.97;10467313;28;1548;-42
2022/02/03 21:07:09;;;;;;;;;;;;;;;22.30;31.05;95336.94;10460322;28;1584;-43
2022/02/03 21:12:10;;;;;;;;;;;;;;;22.26;31.04;95348.38;10449485;28;1354;-43
2022/02/03 21:17:10;;;;;;;;;;;;;;;22.25;31.05;95323.06;10467848;28;1914;-45
2022/02/03 21:22:10;;;;;;;;;;;;;;;22.23;31.28;95341.06;10462715;28;1589;-44
2022/02/03 21:27:16;;;;;;;;;;;;;;;22.21;31.86;95330.78;10471564;28;1441;-46
2022/02/03 21:32:17;;;;;;;;;;;;;;;22.23;31.53;95312.81;10459318;28;1932;-50
2022/02/03 21:37:17;;;;;;;;;;;;;;;22.22;31.27;95316.50;10464913;28;1909;-45
2022/02/03 21:42:18;;;;;;;;;;;;;;;22.20;31.80;95316.00;10467915;28;1881;-45
2022/02/03 21:47:18;;;;;;;;;;;;;;;22.22;31.45;95305.94;10467460;28;1417;-45
2022/02/03 21:52:21;;;;;;;;;;;;;;;22.19;31.72;95303.91;10470567;28;1469;-45
2022/02/03 21:57:21;;;;;;;;;;;;;;;22.20;31.78;95302.81;10469232;28;1969;-47
2022/02/03 22:02:22;;;;;;;;;;;;;;;22.21;31.58;95303.59;10464415;28;1433;-45
2022/02/03 22:07:22;;;;;;;;;;;;;;;22.20;31.60;95307.31;10468106;28;1472;-44
2022/02/03 22:12:22;;;;;;;;;;;;;;;22.21;31.55;95308.88;10467811;28;1374;-49
2022/02/03 22:17:23;;;;;;;;;;;;;;;22.23;31.34;95307.53;10462952;28;1972;-45
2022/02/03 22:48:33;;;;;;;;;;;;;;;21.99;31.56;95306.91;10466334;28;2108;-44
2022/02/03 22:53:35;;;;;;;;;;;;;;;22.02;31.27;95306.34;10472211;28;1918;-44
2022/02/03 23:03:35;;;;;;;;;;;;;;;21.97;31.10;95314.34;10468039;28;1749;-47
2022/02/03 23:23:58;;;;;;;;;;;;;;;21.94;31.24;95311.50;10472191;28;1833;-45
2022/02/03 23:29:03;;;;;;;;;;;;;;;21.92;31.05;95306.53;10450486;28;2023;-45
2022/02/03 23:34:03;;;;;;;;;;;;;;;21.92;31.11;95308.38;10468321;28;2069;-43
